sensor_id;sensor_type;location;lat;lon;timestamp;temperature;humidity
6948;DHT22;3513;47.664;9.162;2022-10-16T00:00:39;12.90;99.90
6948;DHT22;3513;47.664;9.162;2022-10-16T00:03:06;12.90;99.90
6948;DHT22;3513;47.664;9.162;2022-10-16T00:05:32;12.90;99.90
6948;DHT22;3513;47.664;9.162;2022-10-16T00:07:58;12.90;99.90
6948;DHT22;3513;47.664;9.162;2022-10-16T00:10:24;12.80;99.90
6948;DHT22;3513;47.664;9.162;2022-10-16T00:12:49;12.80;99.90
6948;DHT22;3513;47.664;9.162;2022-10-16T00:15:16;12.80;99.90
6948;DHT22;3513;47.664;9.162;2022-10-16T00:17:41;12.80;99.90
6948;DHT22;3513;47.664;9.162;2022-10-16T00:20:07;12.80;99.90
6948;DHT22;3513;47.664;9.162;2022-10-16T00:22:33;12.80;99.90
6948;DHT22;3513;47.664;9.162;2022-10-16T00:24:59;12.80;99.90
6948;DHT22;3513;47.664;9.162;2022-10-16T00:27:24;12.90;99.90
6948;DHT22;3513;47.664;9.162;2022-10-16T00:29:51;12.90;99.90
6948;DHT22;3513;47.664;9.162;2022-10-16T00:32:18;12.90;99.90
6948;DHT22;3513;47.664;9.162;2022-10-16T00:34:43;12.90;99.90
6948;DHT22;3513;47.664;9.162;2022-10-16T00:37:09;12.90;99.90
6948;DHT22;3513;47.664;9.162;2022-10-16T00:39:35;12.90;99.90
6948;DHT22;3513;47.664;9.162;2022-10-16T00:42:01;13.00;99.90
6948;DHT22;3513;47.664;9.162;2022-10-16T00:44:52;13.00;99.90
6948;DHT22;3513;47.664;9.162;2022-10-16T00:47:32;13.00;99.90
6948;DHT22;3513;47.664;9.162;2022-10-16T00:50:16;13.00;99.90
6948;DHT22;3513;47.664;9.162;2022-10-16T00:52:46;13.00;99.90
6948;DHT22;3513;47.664;9.162;2022-10-16T00:55:13;13.00;99.90
6948;DHT22;3513;47.664;9.162;2022-10-16T00:57:39;13.00;99.90
6948;DHT22;3513;47.664;9.162;2022-10-16T01:00:08;13.00;99.90
6948;DHT22;3513;47.664;9.162;2022-10-16T01:02:34;13.00;99.90
6948;DHT22;3513;47.664;9.162;2022-10-16T01:05:00;13.00;99.90
6948;DHT22;3513;47.664;9.162;2022-10-16T01:08:08;13.00;99.90
6948;DHT22;3513;47.664;9.162;2022-10-16T01:10:44;13.00;99.90
6948;DHT22;3513;47.664;9.162;2022-10-16T01:13:21;13.00;99.90
6948;DHT22;3513;47.664;9.162;2022-10-16T01:15:55;13.00;99.90
6948;DHT22;3513;47.664;9.162;2022-10-16T01:21:05;12.90;99.90
6948;DHT22;3513;47.664;9.162;2022-10-16T01:23:54;13.00;99.90
6948;DHT22;3513;47.664;9.162;2022-10-16T01:29:28;12.90;99.90
6948;DHT22;3513;47.664;9.162;2022-10-16T01:32:05;12.90;99.90
6948;DHT22;3513;47.664;9.162;2022-10-16T01:34:38;13.00;99.90
6948;DHT22;3513;47.664;9.162;2022-10-16T01:37:15;13.00;99.90
6948;DHT22;3513;47.664;9.162;2022-10-16T01:39:45;13.00;99.90
6948;DHT22;3513;47.664;9.162;2022-10-16T01:42:20;13.00;99.90
6948;DHT22;3513;47.664;9.162;2022-10-16T01:44:48;13.00;99.90
6948;DHT22;3513;47.664;9.162;2022-10-16T01:47:15;13.00;99.90
6948;DHT22;3513;47.664;9.162;2022-10-16T01:49:43;13.00;99.90
6948;DHT22;3513;47.664;9.162;2022-10-16T01:52:14;13.00;99.90
6948;DHT22;3513;47.664;9.162;2022-10-16T01:54:43;13.00;99.90
6948;DHT22;3513;47.664;9.162;2022-10-16T01:57:11;13.00;99.90
6948;DHT22;3513;47.664;9.162;2022-10-16T01:59:44;13.00;99.90
6948;DHT22;3513;47.664;9.162;2022-10-16T02:02:10;13.00;99.90
6948;DHT22;3513;47.664;9.162;2022-10-16T02:04:40;13.00;99.90
6948;DHT22;3513;47.664;9.162;2022-10-16T02:07:08;13.00;99.90
6948;DHT22;3513;47.664;9.162;2022-10-16T02:09:34;13.00;99.90
6948;DHT22;3513;47.664;9.162;2022-10-16T02:12:06;13.00;99.90
6948;DHT22;3513;47.664;9.162;2022-10-16T02:14:34;13.10;99.90
6948;DHT22;3513;47.664;9.162;2022-10-16T02:17:14;13.10;99.90
6948;DHT22;3513;47.664;9.162;2022-10-16T02:19:40;13.10;99.90
6948;DHT22;3513;47.664;9.162;2022-10-16T02:22:09;13.10;99.90
6948;DHT22;3513;47.664;9.162;2022-10-16T02:24:39;13.10;99.90
6948;DHT22;3513;47.664;9.162;2022-10-16T02:27:17;13.10;99.90
6948;DHT22;3513;47.664;9.162;2022-10-16T02:29:47;13.10;99.90
6948;DHT22;3513;47.664;9.162;2022-10-16T02:32:19;13.10;99.90
6948;DHT22;3513;47.664;9.162;2022-10-16T02:34:48;13.10;99.90
6948;DHT22;3513;47.664;9.162;2022-10-16T02:37:15;13.10;99.90
6948;DHT22;3513;47.664;9.162;2022-10-16T02:39:41;13.10;99.90
6948;DHT22;3513;47.664;9.162;2022-10-16T02:42:14;13.00;99.90
6948;DHT22;3513;47.664;9.162;2022-10-16T02:44:40;13.00;99.90
6948;DHT22;3513;47.664;9.162;2022-10-16T02:47:05;13.00;99.90
6948;DHT22;3513;47.664;9.162;2022-10-16T02:49:31;13.00;99.90
6948;DHT22;3513;47.664;9.162;2022-10-16T02:51:57;13.10;99.90
6948;DHT22;3513;47.664;9.162;2022-10-16T02:54:22;13.00;99.90
6948;DHT22;3513;47.664;9.162;2022-10-16T02:56:49;13.00;99.90
6948;DHT22;3513;47.664;9.162;2022-10-16T02:59:15;13.00;99.90
6948;DHT22;3513;47.664;9.162;2022-10-16T03:01:41;13.00;99.90
6948;DHT22;3513;47.664;9.162;2022-10-16T03:04:07;13.00;99.90
6948;DHT22;3513;47.664;9.162;2022-10-16T03:06:33;13.00;99.90
6948;DHT22;3513;47.664;9.162;2022-10-16T03:08:58;13.00;99.90
6948;DHT22;3513;47.664;9.162;2022-10-16T03:11:24;13.00;99.90
6948;DHT22;3513;47.664;9.162;2022-10-16T03:13:49;13.00;99.90
6948;DHT22;3513;47.664;9.162;2022-10-16T03:16:15;13.00;99.90
6948;DHT22;3513;47.664;9.162;2022-10-16T03:18:41;13.00;99.90
6948;DHT22;3513;47.664;9.162;2022-10-16T03:21:06;13.00;99.90
6948;DHT22;3513;47.664;9.162;2022-10-16T03:23:32;13.00;99.90
6948;DHT22;3513;47.664;9.162;2022-10-16T03:25:58;13.10;99.90
6948;DHT22;3513;47.664;9.162;2022-10-16T03:28:24;13.10;99.90
6948;DHT22;3513;47.664;9.162;2022-10-16T03:30:50;13.10;99.90
6948;DHT22;3513;47.664;9.162;2022-10-16T03:33:15;13.10;99.90
6948;DHT22;3513;47.664;9.162;2022-10-16T03:35:41;13.10;99.90
6948;DHT22;3513;47.664;9.162;2022-10-16T03:38:07;13.10;99.90
6948;DHT22;3513;47.664;9.162;2022-10-16T03:40:32;13.10;99.90
6948;DHT22;3513;47.664;9.162;2022-10-16T03:42:58;13.10;99.90
6948;DHT22;3513;47.664;9.162;2022-10-16T03:45:24;13.10;99.90
6948;DHT22;3513;47.664;9.162;2022-10-16T03:47:50;13.00;99.90
6948;DHT22;3513;47.664;9.162;2022-10-16T03:50:16;13.00;99.90
6948;DHT22;3513;47.664;9.162;2022-10-16T03:52:41;13.00;99.90
6948;DHT22;3513;47.664;9.162;2022-10-16T03:55:07;13.00;99.90
6948;DHT22;3513;47.664;9.162;2022-10-16T03:57:33;13.00;99.90
6948;DHT22;3513;47.664;9.162;2022-10-16T03:59:59;13.00;99.90
6948;DHT22;3513;47.664;9.162;2022-10-16T04:02:24;13.00;99.90
6948;DHT22;3513;47.664;9.162;2022-10-16T04:04:50;13.00;99.90
6948;DHT22;3513;47.664;9.162;2022-10-16T04:07:15;13.00;99.90
6948;DHT22;3513;47.664;9.162;2022-10-16T04:09:41;13.00;99.90
6948;DHT22;3513;47.664;9.162;2022-10-16T04:12:07;13.00;99.90
6948;DHT22;3513;47.664;9.162;2022-10-16T04:14:32;13.00;99.90
6948;DHT22;3513;47.664;9.162;2022-10-16T04:16:58;13.10;99.90
6948;DHT22;3513;47.664;9.162;2022-10-16T04:19:24;13.10;99.90
6948;DHT22;3513;47.664;9.162;2022-10-16T04:21:49;13.10;99.90
6948;DHT22;3513;47.664;9.162;2022-10-16T04:24:15;13.10;99.90
6948;DHT22;3513;47.664;9.162;2022-10-16T04:26:40;13.10;99.90
6948;DHT22;3513;47.664;9.162;2022-10-16T04:29:06;13.10;99.90
6948;DHT22;3513;47.664;9.162;2022-10-16T04:31:32;13.20;99.90
6948;DHT22;3513;47.664;9.162;2022-10-16T04:33:58;13.20;99.90
6948;DHT22;3513;47.664;9.162;2022-10-16T04:36:24;13.20;99.90
6948;DHT22;3513;47.664;9.162;2022-10-16T04:38:50;13.20;99.90
6948;DHT22;3513;47.664;9.162;2022-10-16T04:41:15;13.20;99.90
6948;DHT22;3513;47.664;9.162;2022-10-16T04:43:41;13.20;99.90
6948;DHT22;3513;47.664;9.162;2022-10-16T04:46:07;13.20;99.90
6948;DHT22;3513;47.664;9.162;2022-10-16T04:48:32;13.20;99.90
6948;DHT22;3513;47.664;9.162;2022-10-16T04:50:59;13.20;99.90
6948;DHT22;3513;47.664;9.162;2022-10-16T04:53:24;13.20;99.90
6948;DHT22;3513;47.664;9.162;2022-10-16T04:55:50;13.30;99.90
6948;DHT22;3513;47.664;9.162;2022-10-16T04:58:16;13.30;99.90
6948;DHT22;3513;47.664;9.162;2022-10-16T05:00:42;13.30;99.90
6948;DHT22;3513;47.664;9.162;2022-10-16T05:03:09;13.30;99.90
6948;DHT22;3513;47.664;9.162;2022-10-16T05:05:35;13.30;99.90
6948;DHT22;3513;47.664;9.162;2022-10-16T05:08:01;13.30;99.90
6948;DHT22;3513;47.664;9.162;2022-10-16T05:10:27;13.40;99.90
6948;DHT22;3513;47.664;9.162;2022-10-16T05:12:53;13.40;99.90
6948;DHT22;3513;47.664;9.162;2022-10-16T05:15:19;13.40;99.90
6948;DHT22;3513;47.664;9.162;2022-10-16T05:17:44;13.40;99.90
6948;DHT22;3513;47.664;9.162;2022-10-16T05:20:11;13.40;99.90
6948;DHT22;3513;47.664;9.162;2022-10-16T05:22:37;13.40;99.90
6948;DHT22;3513;47.664;9.162;2022-10-16T05:25:03;13.40;99.90
6948;DHT22;3513;47.664;9.162;2022-10-16T05:27:29;13.40;99.90
6948;DHT22;3513;47.664;9.162;2022-10-16T05:29:55;13.40;99.90
6948;DHT22;3513;47.664;9.162;2022-10-16T05:32:20;13.40;99.90
6948;DHT22;3513;47.664;9.162;2022-10-16T05:34:46;13.30;99.90
6948;DHT22;3513;47.664;9.162;2022-10-16T05:37:12;13.40;99.90
6948;DHT22;3513;47.664;9.162;2022-10-16T05:39:38;13.40;99.90
6948;DHT22;3513;47.664;9.162;2022-10-16T05:42:04;13.40;99.90
6948;DHT22;3513;47.664;9.162;2022-10-16T05:44:30;13.30;99.90
6948;DHT22;3513;47.664;9.162;2022-10-16T05:46:56;13.30;99.90
6948;DHT22;3513;47.664;9.162;2022-10-16T05:49:22;13.30;99.90
6948;DHT22;3513;47.664;9.162;2022-10-16T05:51:47;13.30;99.90
6948;DHT22;3513;47.664;9.162;2022-10-16T05:54:13;13.30;99.90
6948;DHT22;3513;47.664;9.162;2022-10-16T05:56:39;13.30;99.90
6948;DHT22;3513;47.664;9.162;2022-10-16T05:59:05;13.30;99.90
6948;DHT22;3513;47.664;9.162;2022-10-16T06:01:31;13.30;99.90
6948;DHT22;3513;47.664;9.162;2022-10-16T06:03:57;13.30;99.90
6948;DHT22;3513;47.664;9.162;2022-10-16T06:06:25;13.40;99.90
6948;DHT22;3513;47.664;9.162;2022-10-16T06:08:52;13.30;99.90
6948;DHT22;3513;47.664;9.162;2022-10-16T06:11:30;13.30;99.90
6948;DHT22;3513;47.664;9.162;2022-10-16T06:13:58;13.40;99.90
6948;DHT22;3513;47.664;9.162;2022-10-16T06:16:25;13.40;99.90
6948;DHT22;3513;47.664;9.162;2022-10-16T06:18:52;13.50;99.90
6948;DHT22;3513;47.664;9.162;2022-10-16T06:21:20;13.50;99.90
6948;DHT22;3513;47.664;9.162;2022-10-16T06:23:47;13.50;99.90
6948;DHT22;3513;47.664;9.162;2022-10-16T06:26:16;13.50;99.90
6948;DHT22;3513;47.664;9.162;2022-10-16T06:28:42;13.60;99.90
6948;DHT22;3513;47.664;9.162;2022-10-16T06:31:09;13.60;99.90
6948;DHT22;3513;47.664;9.162;2022-10-16T06:33:35;13.60;99.90
6948;DHT22;3513;47.664;9.162;2022-10-16T06:36:15;13.70;99.90
6948;DHT22;3513;47.664;9.162;2022-10-16T06:38:42;13.70;99.90
6948;DHT22;3513;47.664;9.162;2022-10-16T06:41:13;13.80;99.90
6948;DHT22;3513;47.664;9.162;2022-10-16T06:43:39;13.80;99.90
6948;DHT22;3513;47.664;9.162;2022-10-16T06:46:07;13.80;99.90
6948;DHT22;3513;47.664;9.162;2022-10-16T06:48:33;13.80;99.90
6948;DHT22;3513;47.664;9.162;2022-10-16T06:53:29;13.80;99.90
6948;DHT22;3513;47.664;9.162;2022-10-16T06:55:55;13.80;99.90
6948;DHT22;3513;47.664;9.162;2022-10-16T06:58:21;13.90;99.90
6948;DHT22;3513;47.664;9.162;2022-10-16T07:00:47;13.90;99.90
6948;DHT22;3513;47.664;9.162;2022-10-16T07:03:13;13.90;99.90
6948;DHT22;3513;47.664;9.162;2022-10-16T07:05:42;13.90;99.90
6948;DHT22;3513;47.664;9.162;2022-10-16T07:08:09;13.90;99.90
6948;DHT22;3513;47.664;9.162;2022-10-16T07:10:35;14.00;99.90
6948;DHT22;3513;47.664;9.162;2022-10-16T07:13:01;14.00;99.90
6948;DHT22;3513;47.664;9.162;2022-10-16T07:15:27;14.00;99.90
6948;DHT22;3513;47.664;9.162;2022-10-16T07:17:53;13.90;99.90
6948;DHT22;3513;47.664;9.162;2022-10-16T07:20:19;13.90;99.90
6948;DHT22;3513;47.664;9.162;2022-10-16T07:22:45;13.90;99.90
6948;DHT22;3513;47.664;9.162;2022-10-16T07:25:10;13.80;99.90
6948;DHT22;3513;47.664;9.162;2022-10-16T07:27:37;13.80;99.90
6948;DHT22;3513;47.664;9.162;2022-10-16T07:30:03;13.70;99.90
6948;DHT22;3513;47.664;9.162;2022-10-16T07:32:29;13.80;99.90
6948;DHT22;3513;47.664;9.162;2022-10-16T07:34:55;13.80;99.90
6948;DHT22;3513;47.664;9.162;2022-10-16T07:37:21;13.90;99.90
6948;DHT22;3513;47.664;9.162;2022-10-16T07:39:47;13.90;99.90
6948;DHT22;3513;47.664;9.162;2022-10-16T07:42:13;14.00;99.90
6948;DHT22;3513;47.664;9.162;2022-10-16T07:44:38;13.90;99.90
6948;DHT22;3513;47.664;9.162;2022-10-16T07:47:07;14.00;99.90
6948;DHT22;3513;47.664;9.162;2022-10-16T07:49:32;14.10;99.90
6948;DHT22;3513;47.664;9.162;2022-10-16T07:52:30;14.20;99.90
6948;DHT22;3513;47.664;9.162;2022-10-16T07:55:07;14.40;99.90
6948;DHT22;3513;47.664;9.162;2022-10-16T07:57:44;14.60;99.90
6948;DHT22;3513;47.664;9.162;2022-10-16T08:00:10;14.40;99.90
6948;DHT22;3513;47.664;9.162;2022-10-16T08:02:39;14.50;99.90
6948;DHT22;3513;47.664;9.162;2022-10-16T08:05:06;14.60;99.90
6948;DHT22;3513;47.664;9.162;2022-10-16T08:07:32;14.50;99.90
6948;DHT22;3513;47.664;9.162;2022-10-16T08:09:57;14.40;99.90
6948;DHT22;3513;47.664;9.162;2022-10-16T08:12:26;14.40;99.90
6948;DHT22;3513;47.664;9.162;2022-10-16T08:14:52;14.40;99.90
6948;DHT22;3513;47.664;9.162;2022-10-16T08:17:17;14.50;99.90
6948;DHT22;3513;47.664;9.162;2022-10-16T08:19:47;14.60;99.90
6948;DHT22;3513;47.664;9.162;2022-10-16T08:22:14;14.70;99.90
6948;DHT22;3513;47.664;9.162;2022-10-16T08:24:40;14.90;99.90
6948;DHT22;3513;47.664;9.162;2022-10-16T08:27:06;15.20;99.90
6948;DHT22;3513;47.664;9.162;2022-10-16T08:29:32;15.50;99.90
6948;DHT22;3513;47.664;9.162;2022-10-16T08:31:58;15.70;99.90
6948;DHT22;3513;47.664;9.162;2022-10-16T08:34:23;15.80;99.90
6948;DHT22;3513;47.664;9.162;2022-10-16T08:36:49;15.90;99.90
6948;DHT22;3513;47.664;9.162;2022-10-16T08:39:15;15.90;99.90
6948;DHT22;3513;47.664;9.162;2022-10-16T08:42:15;15.90;99.90
6948;DHT22;3513;47.664;9.162;2022-10-16T08:48:10;15.80;99.90
6948;DHT22;3513;47.664;9.162;2022-10-16T08:50:20;15.80;99.90
6948;DHT22;3513;47.664;9.162;2022-10-16T08:52:47;15.70;99.90
6948;DHT22;3513;47.664;9.162;2022-10-16T08:57:53;15.50;99.90
6948;DHT22;3513;47.664;9.162;2022-10-16T09:00:19;15.50;99.90
6948;DHT22;3513;47.664;9.162;2022-10-16T09:11:25;16.00;99.90
6948;DHT22;3513;47.664;9.162;2022-10-16T09:13:29;16.20;99.90
6948;DHT22;3513;47.664;9.162;2022-10-16T09:16:18;16.30;99.90
6948;DHT22;3513;47.664;9.162;2022-10-16T09:19:13;16.40;99.90
6948;DHT22;3513;47.664;9.162;2022-10-16T09:21:42;16.30;99.90
6948;DHT22;3513;47.664;9.162;2022-10-16T09:24:20;16.40;99.90
6948;DHT22;3513;47.664;9.162;2022-10-16T09:26:47;16.50;99.90
6948;DHT22;3513;47.664;9.162;2022-10-16T09:29:14;16.50;99.90
6948;DHT22;3513;47.664;9.162;2022-10-16T09:31:41;16.50;99.90
6948;DHT22;3513;47.664;9.162;2022-10-16T09:36:45;16.70;99.90
6948;DHT22;3513;47.664;9.162;2022-10-16T09:39:11;16.80;99.90
6948;DHT22;3513;47.664;9.162;2022-10-16T09:41:39;16.90;99.90
6948;DHT22;3513;47.664;9.162;2022-10-16T09:44:19;17.00;99.90
6948;DHT22;3513;47.664;9.162;2022-10-16T09:46:46;17.20;99.90
6948;DHT22;3513;47.664;9.162;2022-10-16T09:49:24;17.30;99.90
6948;DHT22;3513;47.664;9.162;2022-10-16T09:51:50;17.30;99.90
6948;DHT22;3513;47.664;9.162;2022-10-16T09:54:21;17.50;99.90
6948;DHT22;3513;47.664;9.162;2022-10-16T09:56:47;17.50;99.90
6948;DHT22;3513;47.664;9.162;2022-10-16T09:59:19;17.50;99.90
6948;DHT22;3513;47.664;9.162;2022-10-16T10:01:50;17.50;99.90
6948;DHT22;3513;47.664;9.162;2022-10-16T10:04:17;17.70;99.90
6948;DHT22;3513;47.664;9.162;2022-10-16T10:06:52;17.80;99.90
6948;DHT22;3513;47.664;9.162;2022-10-16T10:12:03;18.20;99.90
6948;DHT22;3513;47.664;9.162;2022-10-16T10:14:43;18.50;99.90
6948;DHT22;3513;47.664;9.162;2022-10-16T10:19:41;18.80;99.90
6948;DHT22;3513;47.664;9.162;2022-10-16T10:33:11;19.30;99.90
6948;DHT22;3513;47.664;9.162;2022-10-16T10:38:49;19.30;99.90
6948;DHT22;3513;47.664;9.162;2022-10-16T10:47:11;19.30;99.90
6948;DHT22;3513;47.664;9.162;2022-10-16T10:55:54;19.60;99.90
6948;DHT22;3513;47.664;9.162;2022-10-16T11:01:14;19.80;99.90
6948;DHT22;3513;47.664;9.162;2022-10-16T11:06:39;19.90;99.90
6948;DHT22;3513;47.664;9.162;2022-10-16T11:09:24;20.00;99.90
6948;DHT22;3513;47.664;9.162;2022-10-16T11:14:34;20.20;99.00
6948;DHT22;3513;47.664;9.162;2022-10-16T11:17:13;20.30;98.80
6948;DHT22;3513;47.664;9.162;2022-10-16T11:22:37;20.40;96.50
6948;DHT22;3513;47.664;9.162;2022-10-16T11:25:21;20.50;96.00
6948;DHT22;3513;47.664;9.162;2022-10-16T11:28:09;20.60;95.80
6948;DHT22;3513;47.664;9.162;2022-10-16T11:31:17;20.60;95.20
6948;DHT22;3513;47.664;9.162;2022-10-16T11:41:28;21.00;93.90
6948;DHT22;3513;47.664;9.162;2022-10-16T11:44:09;21.10;93.80
6948;DHT22;3513;47.664;9.162;2022-10-16T11:46:42;21.30;92.90
6948;DHT22;3513;47.664;9.162;2022-10-16T11:49:15;21.40;92.70
6948;DHT22;3513;47.664;9.162;2022-10-16T11:57:23;21.90;91.00
6948;DHT22;3513;47.664;9.162;2022-10-16T12:00:00;22.00;90.00
6948;DHT22;3513;47.664;9.162;2022-10-16T12:03:17;22.00;88.80
6948;DHT22;3513;47.664;9.162;2022-10-16T12:08:15;22.10;86.00
6948;DHT22;3513;47.664;9.162;2022-10-16T12:10:43;22.20;85.20
6948;DHT22;3513;47.664;9.162;2022-10-16T12:16:22;22.60;83.70
6948;DHT22;3513;47.664;9.162;2022-10-16T12:18:48;22.70;82.60
6948;DHT22;3513;47.664;9.162;2022-10-16T12:21:16;22.90;82.30
6948;DHT22;3513;47.664;9.162;2022-10-16T12:23:51;22.90;81.40
6948;DHT22;3513;47.664;9.162;2022-10-16T12:26:32;22.90;82.60
6948;DHT22;3513;47.664;9.162;2022-10-16T12:29:23;22.90;83.60
6948;DHT22;3513;47.664;9.162;2022-10-16T12:31:50;22.80;85.40
6948;DHT22;3513;47.664;9.162;2022-10-16T12:34:28;22.90;86.60
6948;DHT22;3513;47.664;9.162;2022-10-16T12:36:55;23.20;86.70
6948;DHT22;3513;47.664;9.162;2022-10-16T12:39:25;23.50;87.00
6948;DHT22;3513;47.664;9.162;2022-10-16T12:44:50;23.80;87.60
6948;DHT22;3513;47.664;9.162;2022-10-16T12:49:58;24.70;86.60
6948;DHT22;3513;47.664;9.162;2022-10-16T12:54:52;26.00;83.20
6948;DHT22;3513;47.664;9.162;2022-10-16T13:10:40;28.50;66.60
6948;DHT22;3513;47.664;9.162;2022-10-16T13:16:35;29.40;62.80
6948;DHT22;3513;47.664;9.162;2022-10-16T13:29:54;29.70;58.60
6948;DHT22;3513;47.664;9.162;2022-10-16T13:32:26;29.50;59.60
6948;DHT22;3513;47.664;9.162;2022-10-16T13:34:52;29.50;59.20
6948;DHT22;3513;47.664;9.162;2022-10-16T13:37:21;29.70;58.70
6948;DHT22;3513;47.664;9.162;2022-10-16T13:39:47;29.90;58.20
6948;DHT22;3513;47.664;9.162;2022-10-16T13:42:28;30.10;57.40
6948;DHT22;3513;47.664;9.162;2022-10-16T13:44:55;30.30;55.80
6948;DHT22;3513;47.664;9.162;2022-10-16T13:47:28;30.40;56.30
6948;DHT22;3513;47.664;9.162;2022-10-16T13:50:04;30.60;55.40
6948;DHT22;3513;47.664;9.162;2022-10-16T13:52:31;31.10;53.80
6948;DHT22;3513;47.664;9.162;2022-10-16T13:54:57;31.40;52.60
6948;DHT22;3513;47.664;9.162;2022-10-16T13:57:24;31.80;52.10
6948;DHT22;3513;47.664;9.162;2022-10-16T13:59:50;32.00;52.00
6948;DHT22;3513;47.664;9.162;2022-10-16T14:02:34;32.00;51.70
6948;DHT22;3513;47.664;9.162;2022-10-16T14:05:02;32.00;51.90
6948;DHT22;3513;47.664;9.162;2022-10-16T14:07:31;31.90;51.20
6948;DHT22;3513;47.664;9.162;2022-10-16T14:10:07;31.80;50.80
6948;DHT22;3513;47.664;9.162;2022-10-16T14:12:43;31.80;50.70
6948;DHT22;3513;47.664;9.162;2022-10-16T14:15:17;31.90;51.00
6948;DHT22;3513;47.664;9.162;2022-10-16T14:17:45;32.20;50.40
6948;DHT22;3513;47.664;9.162;2022-10-16T14:20:15;32.30;50.00
6948;DHT22;3513;47.664;9.162;2022-10-16T14:22:44;32.30;49.90
6948;DHT22;3513;47.664;9.162;2022-10-16T14:28:03;32.00;49.80
6948;DHT22;3513;47.664;9.162;2022-10-16T14:30:30;32.00;50.10
6948;DHT22;3513;47.664;9.162;2022-10-16T14:33:06;32.10;50.70
6948;DHT22;3513;47.664;9.162;2022-10-16T14:35:39;32.30;49.90
6948;DHT22;3513;47.664;9.162;2022-10-16T14:38:06;32.30;49.60
6948;DHT22;3513;47.664;9.162;2022-10-16T14:40:47;32.30;50.20
6948;DHT22;3513;47.664;9.162;2022-10-16T14:43:36;32.50;49.80
6948;DHT22;3513;47.664;9.162;2022-10-16T14:46:06;32.60;49.60
6948;DHT22;3513;47.664;9.162;2022-10-16T14:48:34;32.40;50.20
6948;DHT22;3513;47.664;9.162;2022-10-16T14:51:00;32.00;50.10
6948;DHT22;3513;47.664;9.162;2022-10-16T14:53:26;31.60;51.10
6948;DHT22;3513;47.664;9.162;2022-10-16T14:55:51;31.50;51.90
6948;DHT22;3513;47.664;9.162;2022-10-16T14:58:21;31.50;52.50
6948;DHT22;3513;47.664;9.162;2022-10-16T15:00:47;31.60;52.00
6948;DHT22;3513;47.664;9.162;2022-10-16T15:03:13;31.70;51.40
6948;DHT22;3513;47.664;9.162;2022-10-16T15:05:39;31.80;51.60
6948;DHT22;3513;47.664;9.162;2022-10-16T15:08:05;31.70;51.20
6948;DHT22;3513;47.664;9.162;2022-10-16T15:10:31;31.60;51.10
6948;DHT22;3513;47.664;9.162;2022-10-16T15:12:58;31.30;51.50
6948;DHT22;3513;47.664;9.162;2022-10-16T15:17:54;31.00;51.00
6948;DHT22;3513;47.664;9.162;2022-10-16T15:20:27;30.90;51.60
6948;DHT22;3513;47.664;9.162;2022-10-16T15:22:53;30.80;52.40
6948;DHT22;3513;47.664;9.162;2022-10-16T15:27:51;31.20;52.30
6948;DHT22;3513;47.664;9.162;2022-10-16T15:30:16;31.20;51.30
6948;DHT22;3513;47.664;9.162;2022-10-16T15:32:42;31.30;51.30
6948;DHT22;3513;47.664;9.162;2022-10-16T15:35:11;31.10;51.60
6948;DHT22;3513;47.664;9.162;2022-10-16T15:37:36;30.90;51.80
6948;DHT22;3513;47.664;9.162;2022-10-16T15:40:02;30.80;51.10
6948;DHT22;3513;47.664;9.162;2022-10-16T15:42:28;30.70;51.70
6948;DHT22;3513;47.664;9.162;2022-10-16T15:44:53;30.40;52.60
6948;DHT22;3513;47.664;9.162;2022-10-16T15:47:19;30.00;54.60
6948;DHT22;3513;47.664;9.162;2022-10-16T15:49:44;29.20;56.80
6948;DHT22;3513;47.664;9.162;2022-10-16T15:52:11;28.60;58.60
6948;DHT22;3513;47.664;9.162;2022-10-16T15:54:36;27.90;60.30
6948;DHT22;3513;47.664;9.162;2022-10-16T15:57:02;27.50;62.50
6948;DHT22;3513;47.664;9.162;2022-10-16T15:59:28;27.10;64.10
6948;DHT22;3513;47.664;9.162;2022-10-16T16:01:53;26.90;66.40
6948;DHT22;3513;47.664;9.162;2022-10-16T16:04:19;26.90;66.00
6948;DHT22;3513;47.664;9.162;2022-10-16T16:06:45;27.00;66.60
6948;DHT22;3513;47.664;9.162;2022-10-16T16:09:12;26.90;64.50
6948;DHT22;3513;47.664;9.162;2022-10-16T16:11:37;26.60;65.90
6948;DHT22;3513;47.664;9.162;2022-10-16T16:14:05;26.20;66.90
6948;DHT22;3513;47.664;9.162;2022-10-16T16:16:31;25.50;68.40
6948;DHT22;3513;47.664;9.162;2022-10-16T16:19:02;24.80;71.80
6948;DHT22;3513;47.664;9.162;2022-10-16T16:21:28;24.10;73.90
6948;DHT22;3513;47.664;9.162;2022-10-16T16:23:54;23.80;77.50
6948;DHT22;3513;47.664;9.162;2022-10-16T16:26:27;23.20;79.80
6948;DHT22;3513;47.664;9.162;2022-10-16T16:28:56;22.70;82.30
6948;DHT22;3513;47.664;9.162;2022-10-16T16:31:26;22.30;85.20
6948;DHT22;3513;47.664;9.162;2022-10-16T16:33:53;21.90;88.30
6948;DHT22;3513;47.664;9.162;2022-10-16T16:36:19;21.50;90.40
6948;DHT22;3513;47.664;9.162;2022-10-16T16:38:45;21.10;91.40
6948;DHT22;3513;47.664;9.162;2022-10-16T16:41:19;20.90;92.70
6948;DHT22;3513;47.664;9.162;2022-10-16T16:43:46;20.70;94.00
6948;DHT22;3513;47.664;9.162;2022-10-16T16:46:13;20.40;95.10
6948;DHT22;3513;47.664;9.162;2022-10-16T16:48:40;20.20;96.30
6948;DHT22;3513;47.664;9.162;2022-10-16T16:51:16;19.90;97.60
6948;DHT22;3513;47.664;9.162;2022-10-16T16:53:47;19.70;98.90
6948;DHT22;3513;47.664;9.162;2022-10-16T16:56:13;19.50;99.90
6948;DHT22;3513;47.664;9.162;2022-10-16T16:58:39;19.40;99.90
6948;DHT22;3513;47.664;9.162;2022-10-16T17:01:05;19.20;99.90
6948;DHT22;3513;47.664;9.162;2022-10-16T17:03:33;19.00;99.90
6948;DHT22;3513;47.664;9.162;2022-10-16T17:06:10;18.90;99.90
6948;DHT22;3513;47.664;9.162;2022-10-16T17:08:36;18.70;99.90
6948;DHT22;3513;47.664;9.162;2022-10-16T17:11:02;18.50;99.90
6948;DHT22;3513;47.664;9.162;2022-10-16T17:13:31;18.40;99.90
6948;DHT22;3513;47.664;9.162;2022-10-16T17:15:56;18.30;99.90
6948;DHT22;3513;47.664;9.162;2022-10-16T17:18:23;18.30;99.90
6948;DHT22;3513;47.664;9.162;2022-10-16T17:20:49;18.20;99.90
6948;DHT22;3513;47.664;9.162;2022-10-16T17:23:17;18.10;99.90
6948;DHT22;3513;47.664;9.162;2022-10-16T17:25:43;18.10;99.90
6948;DHT22;3513;47.664;9.162;2022-10-16T17:28:10;18.00;99.90
6948;DHT22;3513;47.664;9.162;2022-10-16T17:30:40;18.00;99.90
6948;DHT22;3513;47.664;9.162;2022-10-16T17:33:06;17.90;99.90
6948;DHT22;3513;47.664;9.162;2022-10-16T17:35:43;17.80;99.90
6948;DHT22;3513;47.664;9.162;2022-10-16T17:38:10;17.70;99.90
6948;DHT22;3513;47.664;9.162;2022-10-16T17:40:36;17.60;99.90
6948;DHT22;3513;47.664;9.162;2022-10-16T17:43:02;17.50;99.90
6948;DHT22;3513;47.664;9.162;2022-10-16T17:45:29;17.40;99.90
6948;DHT22;3513;47.664;9.162;2022-10-16T17:47:54;17.30;99.90
6948;DHT22;3513;47.664;9.162;2022-10-16T17:50:20;17.20;99.90
6948;DHT22;3513;47.664;9.162;2022-10-16T17:52:46;17.10;99.90
6948;DHT22;3513;47.664;9.162;2022-10-16T17:55:12;17.00;99.90
6948;DHT22;3513;47.664;9.162;2022-10-16T17:57:37;17.00;99.90
6948;DHT22;3513;47.664;9.162;2022-10-16T18:00:05;16.90;99.90
6948;DHT22;3513;47.664;9.162;2022-10-16T18:02:31;16.80;99.90
6948;DHT22;3513;47.664;9.162;2022-10-16T18:04:56;16.70;99.90
6948;DHT22;3513;47.664;9.162;2022-10-16T18:07:22;16.60;99.90
6948;DHT22;3513;47.664;9.162;2022-10-16T18:09:48;16.50;99.90
6948;DHT22;3513;47.664;9.162;2022-10-16T18:12:14;16.40;99.90
6948;DHT22;3513;47.664;9.162;2022-10-16T18:14:40;16.30;99.90
6948;DHT22;3513;47.664;9.162;2022-10-16T18:17:06;16.30;99.90
6948;DHT22;3513;47.664;9.162;2022-10-16T18:19:31;16.20;99.90
6948;DHT22;3513;47.664;9.162;2022-10-16T18:21:57;16.10;99.90